createdAt,value
2018-06-03T00:01:37.173Z,99.70
2018-06-03T00:04:05.508Z,99.90
2018-06-03T00:06:37.081Z,99.90
2018-06-03T00:09:05.357Z,99.90
2018-06-03T00:12:40.299Z,99.90
2018-06-03T00:15:09.614Z,99.90
2018-06-03T00:17:38.900Z,99.90
2018-06-03T00:20:08.492Z,99.90
2018-06-03T00:22:37.757Z,99.90
2018-06-03T00:25:07.061Z,99.90
2018-06-03T00:27:36.389Z,99.90
2018-06-03T00:30:05.645Z,99.90
2018-06-03T00:32:34.931Z,99.90
2018-06-03T00:35:04.331Z,99.90
2018-06-03T00:37:33.577Z,99.90
2018-06-03T00:40:02.832Z,99.90
2018-06-03T00:42:32.095Z,99.90
2018-06-03T00:45:01.377Z,99.90
2018-06-03T00:47:30.606Z,99.90
2018-06-03T00:49:59.843Z,99.90
2018-06-03T00:52:29.251Z,99.90
2018-06-03T00:54:58.667Z,99.90
2018-06-03T00:57:28.066Z,99.90
2018-06-03T00:59:57.341Z,99.90
2018-06-03T01:02:27.364Z,99.90
2018-06-03T01:04:56.606Z,99.90
2018-06-03T01:07:26.780Z,99.90
2018-06-03T01:09:56.045Z,99.90
2018-06-03T01:12:25.293Z,99.90
2018-06-03T01:14:54.560Z,99.90
2018-06-03T01:17:23.798Z,99.90
2018-06-03T01:19:53.350Z,99.90
2018-06-03T01:22:22.692Z,99.90
2018-06-03T01:24:51.945Z,99.90
2018-06-03T01:27:21.257Z,99.90
2018-06-03T01:29:50.511Z,99.90
2018-06-03T01:32:19.757Z,99.90
2018-06-03T01:34:49.034Z,99.90
2018-06-03T01:37:18.293Z,99.90
2018-06-03T01:39:47.599Z,99.90
2018-06-03T01:42:16.910Z,99.90
2018-06-03T01:44:46.481Z,99.90
2018-06-03T01:47:16.024Z,99.90
2018-06-03T01:49:45.213Z,99.90
2018-06-03T01:52:14.467Z,99.90
2018-06-03T01:54:43.809Z,99.90
2018-06-03T01:57:13.086Z,99.90
2018-06-03T01:59:42.400Z,99.90
2018-06-03T02:02:11.675Z,99.90
2018-06-03T02:04:40.932Z,99.90
2018-06-03T02:07:10.158Z,99.90
2018-06-03T02:09:39.409Z,99.90
2018-06-03T02:12:08.687Z,99.90
2018-06-03T02:14:38.004Z,99.90
2018-06-03T02:17:07.270Z,99.90
2018-06-03T02:19:36.524Z,99.90
2018-06-03T02:22:05.999Z,99.90
2018-06-03T02:24:35.235Z,99.90
2018-06-03T02:27:04.538Z,99.90
2018-06-03T02:29:33.766Z,99.90
2018-06-03T02:32:03.016Z,99.90
2018-06-03T02:34:32.226Z,99.90
2018-06-03T02:37:01.860Z,99.90
2018-06-03T02:39:31.804Z,99.90
2018-06-03T02:42:01.067Z,99.90
2018-06-03T02:44:30.289Z,99.90
2018-06-03T02:46:59.542Z,99.90
2018-06-03T02:49:28.760Z,99.90
2018-06-03T02:51:58.025Z,99.90
2018-06-03T02:54:27.280Z,99.90
2018-06-03T02:56:56.521Z,99.90
2018-06-03T02:59:25.807Z,99.90
2018-06-03T03:01:55.171Z,99.90
2018-06-03T03:04:24.443Z,99.90
2018-06-03T03:06:53.653Z,99.90
2018-06-03T03:09:22.896Z,99.90
2018-06-03T03:11:52.261Z,99.90
2018-06-03T03:14:21.507Z,99.90
2018-06-03T03:16:50.781Z,99.90
2018-06-03T03:19:20.024Z,99.90
2018-06-03T03:21:49.296Z,99.90
2018-06-03T03:24:18.513Z,99.90
2018-06-03T03:26:47.780Z,99.90
2018-06-03T03:31:45.809Z,99.90
2018-06-03T03:34:15.054Z,99.90
2018-06-03T03:36:44.298Z,99.90
2018-06-03T03:39:13.824Z,99.90
2018-06-03T03:41:43.059Z,99.90
2018-06-03T03:44:12.358Z,99.90
2018-06-03T03:46:41.620Z,99.90
2018-06-03T03:49:11.592Z,99.90
2018-06-03T03:51:40.900Z,99.90
2018-06-03T03:54:10.195Z,99.90
2018-06-03T03:56:40.065Z,99.90
2018-06-03T03:59:09.316Z,99.90
2018-06-03T04:01:38.584Z,99.90
2018-06-03T04:04:07.884Z,99.90
2018-06-03T04:06:37.221Z,99.90
2018-06-03T04:09:06.913Z,99.90
2018-06-03T04:11:36.259Z,99.90
2018-06-03T04:14:05.761Z,99.90
2018-06-03T04:16:35.571Z,99.90
2018-06-03T04:19:04.918Z,99.90
2018-06-03T04:21:34.309Z,99.90
2018-06-03T04:24:04.137Z,99.90
2018-06-03T04:26:33.508Z,99.90
2018-06-03T04:29:02.764Z,99.90
2018-06-03T04:31:32.106Z,99.90
2018-06-03T04:34:01.397Z,99.90
2018-06-03T04:36:30.705Z,99.90
2018-06-03T04:38:59.911Z,99.90
2018-06-03T04:41:29.159Z,99.90
2018-06-03T04:43:58.371Z,99.90
2018-06-03T04:46:27.628Z,99.90
2018-06-03T04:48:56.889Z,99.90
2018-06-03T04:51:26.364Z,99.90
2018-06-03T04:53:55.611Z,99.90
2018-06-03T04:56:24.899Z,99.90
2018-06-03T04:58:54.268Z,99.90
2018-06-03T05:01:23.494Z,99.90
2018-06-03T05:03:52.748Z,99.90
2018-06-03T05:06:21.969Z,99.90
2018-06-03T05:08:51.319Z,99.90
2018-06-03T05:11:20.577Z,99.90
2018-06-03T05:16:23.593Z,99.90
2018-06-03T05:18:52.823Z,99.90
2018-06-03T05:21:22.100Z,99.90
2018-06-03T05:23:51.730Z,99.10
2018-06-03T05:26:21.881Z,98.90
2018-06-03T05:31:19.940Z,98.90
2018-06-03T05:33:49.215Z,98.90
2018-06-03T05:36:18.446Z,98.80
2018-06-03T05:38:47.731Z,98.80
2018-06-03T05:41:17.180Z,98.70
2018-06-03T05:43:46.436Z,98.40
2018-06-03T05:46:15.743Z,98.20
2018-06-03T05:48:45.448Z,98.10
2018-06-03T05:51:14.689Z,98.10
2018-06-03T05:53:43.901Z,98.20
2018-06-03T05:56:13.127Z,98.50
2018-06-03T05:58:42.753Z,98.60
2018-06-03T06:03:40.874Z,98.80
2018-06-03T06:06:10.307Z,99.00
2018-06-03T06:08:39.549Z,98.80
2018-06-03T06:11:08.792Z,98.60
2018-06-03T06:13:38.185Z,98.30
2018-06-03T06:16:07.439Z,98.00
2018-06-03T06:18:36.641Z,98.00
2018-06-03T06:21:06.021Z,97.20
2018-06-03T06:23:35.277Z,96.80
2018-06-03T06:26:04.572Z,95.90
2018-06-03T06:28:33.843Z,95.90
2018-06-03T06:31:03.092Z,95.40
2018-06-03T06:33:32.343Z,95.50
2018-06-03T06:36:01.605Z,95.50
2018-06-03T06:38:30.880Z,95.40
2018-06-03T06:41:00.154Z,95.30
2018-06-03T06:43:29.485Z,95.60
2018-06-03T06:45:58.736Z,95.60
2018-06-03T06:48:28.426Z,95.60
2018-06-03T06:50:58.275Z,95.70
2018-06-03T06:53:27.602Z,95.80
2018-06-03T06:55:56.877Z,95.80
2018-06-03T06:58:26.112Z,96.00
2018-06-03T07:00:55.468Z,96.10
2018-06-03T07:03:24.756Z,96.00
2018-06-03T07:05:54.727Z,96.10
2018-06-03T07:08:24.020Z,96.10
2018-06-03T07:10:53.237Z,96.60
2018-06-03T07:13:22.564Z,96.30
2018-06-03T07:15:51.813Z,96.20
2018-06-03T07:18:21.229Z,96.40
2018-06-03T07:20:50.489Z,96.30
2018-06-03T07:23:20.130Z,96.40
2018-06-03T07:25:49.664Z,96.40
2018-06-03T07:28:18.969Z,96.30
2018-06-03T07:30:48.180Z,96.30
2018-06-03T07:33:17.437Z,96.20
2018-06-03T07:35:46.679Z,96.30
2018-06-03T07:38:15.990Z,96.20
2018-06-03T07:40:45.274Z,96.50
2018-06-03T07:43:14.580Z,96.40
2018-06-03T07:45:44.358Z,96.40
2018-06-03T07:48:13.645Z,95.90
2018-06-03T07:50:42.927Z,96.20
2018-06-03T07:53:12.344Z,95.60
2018-06-03T07:55:41.951Z,95.80
2018-06-03T07:58:11.392Z,95.40
2018-06-03T08:00:40.694Z,94.90
2018-06-03T08:03:10.083Z,93.80
2018-06-03T08:05:39.395Z,93.20
2018-06-03T08:08:08.685Z,93.10
2018-06-03T08:10:37.987Z,92.80
2018-06-03T08:13:07.828Z,92.60
2018-06-03T08:15:37.132Z,91.80
2018-06-03T08:18:08.043Z,90.90
2018-06-03T08:20:37.352Z,90.30
2018-06-03T08:23:06.876Z,90.00
2018-06-03T08:25:36.152Z,87.70
2018-06-03T08:28:05.462Z,88.50
2018-06-03T08:33:04.311Z,88.80
2018-06-03T08:35:33.629Z,88.20
2018-06-03T08:38:02.864Z,89.10
2018-06-03T08:40:32.153Z,89.40
2018-06-03T08:43:01.565Z,89.30
2018-06-03T08:45:30.816Z,89.40
2018-06-03T08:48:00.137Z,87.40
2018-06-03T08:50:30.163Z,86.20
2018-06-03T08:53:00.021Z,86.70
2018-06-03T08:55:29.316Z,89.20
2018-06-03T08:57:59.163Z,90.10
2018-06-03T09:00:28.643Z,90.00
2018-06-03T09:02:57.891Z,89.30
2018-06-03T09:05:27.199Z,90.00
2018-06-03T09:07:56.504Z,87.80
2018-06-03T09:10:25.805Z,83.30
2018-06-03T09:12:55.350Z,85.30
2018-06-03T09:15:24.664Z,87.00
2018-06-03T09:17:54.037Z,86.40
2018-06-03T09:20:24.016Z,85.40
2018-06-03T09:22:53.265Z,84.80
2018-06-03T09:25:22.701Z,84.40
2018-06-03T09:27:52.348Z,83.20
2018-06-03T09:30:21.740Z,82.70
2018-06-03T09:32:51.305Z,84.00
2018-06-03T09:35:20.578Z,84.90
2018-06-03T09:37:49.833Z,84.20
2018-06-03T09:40:19.176Z,85.80
2018-06-03T09:42:49.133Z,85.90
2018-06-03T09:45:18.443Z,85.70
2018-06-03T09:47:47.780Z,85.50
2018-06-03T09:50:17.458Z,87.90
2018-06-03T09:52:46.756Z,88.50
2018-06-03T09:55:16.011Z,88.10
2018-06-03T09:57:46.059Z,90.00
2018-06-03T10:00:16.628Z,90.20
2018-06-03T10:02:45.798Z,90.60
2018-06-03T10:05:15.089Z,90.50
2018-06-03T10:07:44.304Z,90.50
2018-06-03T10:10:13.647Z,90.70
2018-06-03T10:12:43.080Z,90.70
2018-06-03T10:15:12.359Z,90.90
2018-06-03T10:17:41.645Z,91.30
2018-06-03T10:20:10.921Z,91.10
2018-06-03T10:22:40.244Z,91.20
2018-06-03T10:25:09.641Z,90.90
2018-06-03T10:27:39.575Z,90.50
2018-06-03T10:30:08.934Z,90.50
2018-06-03T10:32:38.192Z,88.80
2018-06-03T10:35:07.461Z,88.60
2018-06-03T10:37:36.690Z,88.90
2018-06-03T10:40:06.008Z,88.30
2018-06-03T10:42:35.278Z,87.20
2018-06-03T10:47:33.470Z,87.80
2018-06-03T10:50:02.735Z,87.40
2018-06-03T10:52:32.264Z,87.50
2018-06-03T10:55:01.653Z,86.60
2018-06-03T10:57:31.428Z,85.50
2018-06-03T11:00:00.745Z,86.20
2018-06-03T11:02:30.331Z,82.50
2018-06-03T11:04:59.626Z,79.80
2018-06-03T11:07:29.059Z,78.30
2018-06-03T11:09:59.958Z,77.50
2018-06-03T11:12:29.224Z,73.80
2018-06-03T11:14:58.564Z,72.20
2018-06-03T11:17:27.885Z,71.70
2018-06-03T11:19:57.099Z,72.00
2018-06-03T11:22:26.400Z,72.20
2018-06-03T11:24:55.688Z,73.40
2018-06-03T11:27:24.959Z,71.60
2018-06-03T11:29:54.636Z,73.70
2018-06-03T11:32:24.216Z,72.70
2018-06-03T11:34:53.470Z,73.60
2018-06-03T11:37:22.731Z,72.70
2018-06-03T11:39:52.149Z,71.50
2018-06-03T11:42:22.120Z,70.10
2018-06-03T11:44:51.487Z,69.20
2018-06-03T11:47:21.358Z,67.60
2018-06-03T11:49:50.769Z,68.20
2018-06-03T11:52:20.035Z,67.50
2018-06-03T11:54:49.689Z,70.00
2018-06-03T11:57:18.975Z,70.80
2018-06-03T11:59:48.254Z,71.50
2018-06-03T12:02:18.681Z,72.60
2018-06-03T12:07:16.880Z,69.50
2018-06-03T12:09:46.204Z,69.20
2018-06-03T12:12:15.513Z,66.60
2018-06-03T12:14:44.828Z,66.50
2018-06-03T12:17:14.153Z,63.90
2018-06-03T12:19:43.713Z,63.50
2018-06-03T12:22:13.145Z,62.30
2018-06-03T12:24:42.764Z,63.60
2018-06-03T12:27:12.604Z,64.00
2018-06-03T12:29:41.856Z,64.40
2018-06-03T12:32:11.123Z,63.00
2018-06-03T12:34:40.367Z,63.00
2018-06-03T12:37:09.699Z,62.50
2018-06-03T12:39:39.489Z,62.20
2018-06-03T12:42:08.815Z,60.90
2018-06-03T12:44:38.041Z,61.00
2018-06-03T12:47:07.304Z,60.20
2018-06-03T12:49:36.608Z,60.50
2018-06-03T12:52:06.008Z,60.40
2018-06-03T12:54:35.337Z,61.00
2018-06-03T12:57:04.979Z,61.70
2018-06-03T12:59:34.319Z,61.20
2018-06-03T13:02:03.621Z,62.80
2018-06-03T13:04:32.881Z,63.70
2018-06-03T13:07:02.163Z,61.90
2018-06-03T13:09:31.409Z,62.50
2018-06-03T13:12:00.721Z,64.50
2018-06-03T13:14:29.972Z,63.90
2018-06-03T13:16:59.306Z,64.40
2018-06-03T13:19:28.541Z,63.50
2018-06-03T13:21:57.816Z,62.30
2018-06-03T13:24:27.816Z,61.50
2018-06-03T13:26:57.109Z,60.90
2018-06-03T13:29:26.400Z,61.20
2018-06-03T13:31:55.809Z,59.80
2018-06-03T13:34:25.005Z,59.40
2018-06-03T13:36:54.315Z,59.10
2018-06-03T13:39:23.626Z,59.10
2018-06-03T13:41:53.126Z,59.80
2018-06-03T13:44:22.381Z,59.30
2018-06-03T13:46:51.669Z,59.70
2018-06-03T13:49:20.920Z,60.80
2018-06-03T13:51:50.224Z,61.40
2018-06-03T13:54:19.428Z,60.20
2018-06-03T13:56:48.802Z,60.60
2018-06-03T13:59:18.060Z,61.00
2018-06-03T14:01:47.528Z,61.30
2018-06-03T14:04:16.849Z,63.20
2018-06-03T14:06:46.146Z,64.40
2018-06-03T14:09:15.452Z,66.50
2018-06-03T14:11:44.775Z,67.70
2018-06-03T14:14:14.044Z,69.00
2018-06-03T14:16:43.403Z,69.80
2018-06-03T14:19:12.663Z,70.70
2018-06-03T14:21:41.922Z,70.60
2018-06-03T14:24:11.225Z,70.70
2018-06-03T14:26:40.451Z,71.10
2018-06-03T14:29:09.719Z,71.60
2018-06-03T14:31:39.040Z,72.70
2018-06-03T14:34:08.399Z,71.80
2018-06-03T14:36:37.761Z,69.30
2018-06-03T14:39:08.361Z,70.80
2018-06-03T14:41:37.661Z,71.20
2018-06-03T14:44:06.566Z,71.20
2018-06-03T14:46:36.556Z,69.50
2018-06-03T14:49:05.884Z,70.50
2018-06-03T14:51:35.232Z,70.00
2018-06-03T14:54:04.614Z,70.40
2018-06-03T14:56:33.877Z,70.50
2018-06-03T14:59:03.199Z,71.10
2018-06-03T15:01:32.548Z,70.70
2018-06-03T15:04:01.787Z,72.20
2018-06-03T15:06:31.020Z,72.20
2018-06-03T15:09:00.321Z,72.80
2018-06-03T15:11:29.639Z,72.70
2018-06-03T15:13:58.983Z,73.00
2018-06-03T15:16:28.448Z,73.20
2018-06-03T15:18:57.773Z,73.70
2018-06-03T15:21:27.037Z,74.70
2018-06-03T15:23:56.412Z,74.20
2018-06-03T15:26:25.676Z,73.70
2018-06-03T15:28:54.986Z,73.70
2018-06-03T15:31:24.243Z,73.80
2018-06-03T15:33:53.519Z,73.90
2018-06-03T15:36:22.723Z,74.70
2018-06-03T15:38:51.990Z,73.80
2018-06-03T15:41:21.641Z,74.70
2018-06-03T15:43:51.058Z,74.90
2018-06-03T15:46:20.608Z,75.00
2018-06-03T15:48:49.911Z,74.50
2018-06-03T15:51:19.180Z,75.00
2018-06-03T15:53:48.511Z,74.50
2018-06-03T15:56:17.869Z,74.80
2018-06-03T15:58:52.610Z,74.70
2018-06-03T16:01:21.846Z,75.20
2018-06-03T16:03:51.183Z,75.40
2018-06-03T16:06:20.440Z,75.20
2018-06-03T16:08:49.745Z,75.50
2018-06-03T16:11:19.375Z,75.50
2018-06-03T16:13:48.680Z,76.20
2018-06-03T16:16:18.047Z,76.00
2018-06-03T16:18:47.251Z,75.70
2018-06-03T16:21:16.524Z,76.50
2018-06-03T16:23:45.829Z,76.20
2018-06-03T16:26:16.069Z,76.50
2018-06-03T16:28:45.341Z,77.40
2018-06-03T16:31:14.620Z,77.70
2018-06-03T16:33:43.981Z,78.80
2018-06-03T16:36:13.292Z,78.80
2018-06-03T16:38:42.644Z,79.80
2018-06-03T16:41:11.940Z,80.50
2018-06-03T16:43:41.269Z,80.90
2018-06-03T16:46:10.553Z,81.00
2018-06-03T16:48:39.914Z,81.10
2018-06-03T16:51:09.265Z,81.60
2018-06-03T16:53:38.555Z,81.10
2018-06-03T16:56:07.811Z,82.20
2018-06-03T16:58:37.168Z,82.20
2018-06-03T17:01:07.656Z,82.40
2018-06-03T17:03:36.961Z,82.50
2018-06-03T17:06:07.342Z,81.90
2018-06-03T17:08:36.708Z,82.10
2018-06-03T17:11:06.028Z,82.50
2018-06-03T17:13:35.448Z,82.40
2018-06-03T17:16:04.757Z,82.00
2018-06-03T17:18:34.131Z,81.30
2018-06-03T17:23:32.383Z,81.60
2018-06-03T17:26:01.621Z,82.20
2018-06-03T17:28:30.896Z,81.90
2018-06-03T17:31:00.211Z,82.60
2018-06-03T17:33:29.544Z,82.70
2018-06-03T17:35:58.803Z,82.70
2018-06-03T17:38:28.077Z,82.20
2018-06-03T17:40:57.411Z,82.00
2018-06-03T17:43:26.725Z,82.40
2018-06-03T17:45:56.301Z,82.10
2018-06-03T17:48:25.596Z,82.00
2018-06-03T17:50:54.912Z,82.20
2018-06-03T17:53:24.257Z,83.00
2018-06-03T17:55:53.558Z,82.50
2018-06-03T17:58:22.809Z,82.50
2018-06-03T18:00:52.053Z,83.00
2018-06-03T18:03:21.278Z,83.30
2018-06-03T18:05:50.605Z,83.50
2018-06-03T18:08:19.878Z,84.20
2018-06-03T18:10:49.159Z,85.40
2018-06-03T18:13:18.421Z,85.60
2018-06-03T18:15:47.656Z,86.10
2018-06-03T18:18:16.957Z,86.50
2018-06-03T18:20:46.329Z,86.40
2018-06-03T18:23:15.637Z,86.90
2018-06-03T18:25:44.976Z,86.70
2018-06-03T18:28:15.003Z,87.00
2018-06-03T18:30:45.050Z,86.80
2018-06-03T18:33:14.429Z,87.10
2018-06-03T18:35:43.730Z,87.20
2018-06-03T18:38:13.042Z,87.10
2018-06-03T18:40:42.734Z,87.30
2018-06-03T18:43:12.094Z,87.40
2018-06-03T18:45:41.448Z,87.90
2018-06-03T18:48:10.782Z,88.20
2018-06-03T18:50:40.124Z,88.30
2018-06-03T18:53:09.456Z,88.60
2018-06-03T18:55:39.136Z,88.70
2018-06-03T18:58:09.217Z,89.10
2018-06-03T19:00:39.541Z,89.10
2018-06-03T19:03:08.932Z,89.20
2018-06-03T19:05:38.278Z,89.80
2018-06-03T19:08:07.743Z,89.90
2018-06-03T19:10:37.237Z,90.30
2018-06-03T19:13:06.932Z,90.40
2018-06-03T19:15:36.321Z,90.70
2018-06-03T19:18:06.025Z,90.90
2018-06-03T19:20:35.767Z,91.00
2018-06-03T19:23:05.139Z,91.20
2018-06-03T19:25:34.550Z,91.80
2018-06-03T19:28:04.040Z,91.70
2018-06-03T19:30:33.728Z,91.80
2018-06-03T19:33:03.081Z,92.00
2018-06-03T19:35:32.537Z,92.20
2018-06-03T19:38:01.975Z,92.40
2018-06-03T19:40:31.337Z,92.60
2018-06-03T19:43:00.658Z,92.80
2018-06-03T19:45:29.963Z,93.10
2018-06-03T19:47:59.277Z,93.20
2018-06-03T19:50:28.586Z,93.30
2018-06-03T19:52:57.892Z,93.50
2018-06-03T19:55:27.761Z,93.60
2018-06-03T19:57:57.776Z,93.80
2018-06-03T20:00:27.569Z,94.00
2018-06-03T20:02:56.768Z,94.10
2018-06-03T20:05:26.188Z,94.40
2018-06-03T20:07:55.690Z,94.50
2018-06-03T20:10:25.043Z,94.60
2018-06-03T20:12:54.581Z,94.60
2018-06-03T20:15:23.901Z,94.70
2018-06-03T20:17:54.220Z,95.00
2018-06-03T20:20:23.531Z,94.80
2018-06-03T20:22:52.800Z,95.00
2018-06-03T20:25:22.228Z,95.20
2018-06-03T20:27:51.512Z,95.20
2018-06-03T20:30:20.796Z,95.40
2018-06-03T20:32:50.216Z,95.60
2018-06-03T20:35:19.528Z,95.70
2018-06-03T20:37:48.785Z,95.90
2018-06-03T20:40:18.065Z,96.10
2018-06-03T20:42:48.005Z,95.80
2018-06-03T20:45:17.372Z,95.80
2018-06-03T20:47:46.639Z,95.90
2018-06-03T20:50:15.922Z,96.30
2018-06-03T20:52:45.279Z,96.10
2018-06-03T20:55:14.567Z,96.20
2018-06-03T20:57:43.868Z,96.30
2018-06-03T21:00:13.889Z,96.30
2018-06-03T21:02:43.692Z,96.40
2018-06-03T21:05:12.996Z,96.20
2018-06-03T21:07:43.014Z,97.00
2018-06-03T21:10:12.364Z,97.00
2018-06-03T21:12:41.651Z,96.60
2018-06-03T21:15:11.551Z,96.60
2018-06-03T21:17:40.873Z,96.80
2018-06-03T21:20:10.134Z,96.90
2018-06-03T21:22:39.433Z,97.00
2018-06-03T21:25:08.721Z,96.90
2018-06-03T21:27:38.012Z,97.30
2018-06-03T21:32:36.088Z,97.90
2018-06-03T21:35:06.273Z,97.30
2018-06-03T21:37:35.625Z,97.90
2018-06-03T21:40:04.944Z,97.60
2018-06-03T21:42:34.254Z,97.90
2018-06-03T21:45:03.545Z,97.90
2018-06-03T21:50:01.625Z,97.90
2018-06-03T21:52:30.974Z,97.80
2018-06-03T21:55:00.371Z,97.80
2018-06-03T21:57:29.630Z,97.90
2018-06-03T21:59:58.991Z,98.40
2018-06-03T22:02:28.253Z,98.70
2018-06-03T22:04:57.492Z,98.50
2018-06-03T22:07:26.732Z,98.70
2018-06-03T22:09:56.316Z,98.60
2018-06-03T22:12:25.663Z,99.00
2018-06-03T22:14:55.716Z,98.70
2018-06-03T22:17:25.164Z,98.50
2018-06-03T22:19:54.424Z,98.30
2018-06-03T22:22:23.712Z,98.50
2018-06-03T22:24:53.631Z,98.80
2018-06-03T22:27:22.909Z,98.90
2018-06-03T22:29:52.136Z,98.70
2018-06-03T22:32:21.431Z,98.70
2018-06-03T22:34:50.692Z,99.00
2018-06-03T22:37:19.964Z,99.60
2018-06-03T22:39:49.271Z,99.70
2018-06-03T22:44:47.531Z,99.20
2018-06-03T22:47:16.812Z,99.30
2018-06-03T22:49:46.139Z,99.70
2018-06-03T22:52:15.479Z,99.70
2018-06-03T22:54:44.732Z,99.60
2018-06-03T22:57:52.072Z,99.80
2018-06-03T23:00:22.327Z,99.80
2018-06-03T23:02:56.955Z,99.70
2018-06-03T23:05:26.237Z,99.80
2018-06-03T23:07:55.534Z,99.80
2018-06-03T23:10:24.824Z,99.50
2018-06-03T23:12:54.251Z,99.10
2018-06-03T23:20:21.444Z,98.30
2018-06-03T23:25:20.368Z,98.40
2018-06-03T23:27:49.600Z,98.10
2018-06-03T23:30:18.895Z,97.90
2018-06-03T23:32:48.757Z,97.90
2018-06-03T23:35:18.147Z,97.70
2018-06-03T23:37:47.447Z,98.00
2018-06-03T23:40:16.727Z,98.00
2018-06-03T23:42:46.108Z,98.20
2018-06-03T23:45:15.448Z,98.20
2018-06-03T23:47:44.688Z,98.10
2018-06-03T23:50:13.992Z,98.30
2018-06-03T23:52:43.765Z,98.40
2018-06-03T23:55:13.041Z,98.30
2018-06-03T23:57:42.252Z,98.60
